Marcos Correia

Olheiro - Atlético Mineiro
22 Abr 2027
Quinta-feira
Processo

Personalidade

Adaptabilidade (12) Ambição (12) Controvérsia (18) Lealdade (1) Pressão (8) Profissionalismo (6) Espírito Esportivo (3) Temperamento (9)

Perfil

Estilo de Treinamento Democrático
Licença Continental Pro
Determinação 11
Gestão de Pessoas 8
Motivação 10
Disciplina 14
Satisfação no Trabalho
50%
Fadiga
0%
Função Olheiro
Salário 55.8K p/s
Contrato 14.03.2029

Desempenho

Comportamento Normal
Eficácia do Treinamento
25%
Desenvolvimento do Jogador
65%
Prevenção de Lesões
60%
Implementação Tática
60%

Eventos Recentes

Avaliou um jogador agora
Participou de uma reunião de recrutamento agora
Recomendou um alvo de transferência agora
Recomendou um alvo de transferência 7d atrás
Avaliou um jogador 7d atrás
Avaliou um jogador 7d atrás
Avaliou um jogador 7d atrás
Avaliou um jogador 7d atrás

Monitorando agora

144
Jogador Clube Status Habilidade Confiança Observado Última observação Último voto
Josh Keeley Luton Town Ativo 126 / 143 40% 1 21.04.2027 -
Oufa Shobeir MC Alger Ativo 120 / 116 40% 1 21.04.2027 -
Mile Svilar AS Roma Ativo 168 / 174 40% 1 21.04.2027 -
Edoardo Corvi Parma Ativo 127 / 119 40% 2 20.04.2027 -
Diogo Costa Lazio Ativo 171 / 171 40% 1 20.04.2027 -
Anthony Patterson Wrexham Ativo 137 / 124 40% 1 20.04.2027 -
Đorđe Petrović Bournemouth Ativo 157 / 159 40% 4 19.04.2027 -
Andreas Jungdal Westerlo Ativo 118 / 131 40% 3 19.04.2027 -
Franco Israel Torino Ativo 136 / 121 40% 2 19.04.2027 -
Samu Aghehowa Nottingham Forest Ativo 142 / 167 40% 2 17.04.2027 -
Zion Suzuki Aston Villa Ativo 137 / 149 40% 3 17.04.2027 -
Ivor Pandur Hull City Ativo 123 / 110 40% 1 17.04.2027 -
Josh Coburn Millwall Ativo 117 / 125 40% 1 17.04.2027 -
Evanilson Bournemouth Ativo 149 / 150 40% 1 17.04.2027 -
Morgan Whittaker Middlesbrough Ativo 127 / 142 40% 2 14.04.2027 -
Wandile Duba ASO Chlef Ativo 109 / 109 40% 2 14.04.2027 -
Barış Alper Yılmaz Galatasaray Ativo 149 / 145 40% 1 14.04.2027 -
Heorhii Yermakov Metalist Ativo 120 / 134 40% 2 13.04.2027 -
Michael Cooper Sheffield United Ativo 136 / 141 40% 1 13.04.2027 -
Jalen Blesa Rio Ave Ativo 121 / 105 40% 8 12.04.2027 -
Camilo Durán Bloemfontein Celtic Ativo 126 / 112 40% 8 12.04.2027 -
Ilyas Ansah Hull City Ativo 138 / 138 40% 4 12.04.2027 -
Lorenzo Colombo Genoa Ativo 137 / 142 40% 2 11.04.2027 -
Dale Taylor Blackpool Ativo 117 / 107 40% 1 11.04.2027 -
Aaron Connolly Leyton Orient Ativo 118 / 125 40% 4 07.04.2027 -
Mathias Jørgensen Blackburn Rovers Ativo 123 / 106 40% 2 07.04.2027 -
Yousef Salech Cardiff City Ativo 129 / 129 40% 2 06.04.2027 -
Kwame Opoku Asante Kotoko Ativo 104 / 95 40% 2 06.04.2027 -
James Trafford Leeds United Ativo 140 / 133 40% 3 02.04.2027 -
Deniz Ertaş Konyaspor Ativo 123 / 117 40% 2 02.04.2027 -
Manuel Roffo Hajduk Split Ativo 128 / 143 40% 1 02.04.2027 -
Aune Heggebø West Bromwich Albion Ativo 126 / 121 40% 3 31.03.2027 -
Andrea Pinamonti Lazio Ativo 142 / 146 40% 1 29.03.2027 -
Sorriso Famalicao Ativo 137 / 140 40% 5 27.03.2027 -
Tom Cannon Sheffield United Ativo 129 / 127 40% 3 27.03.2027 -
Gustavo Silva Vitoria Guimaraes Ativo 132 / 123 40% 8 26.03.2027 -
Lucas Duarte Felgueiras Ativo 100 / 111 40% 3 26.03.2027 -
Percy Vilakazi Free State Stars Ativo 119 / 109 40% 3 25.03.2027 -
Malik Mothersille Stockport County Ativo 112 / 103 40% 1 25.03.2027 -
Korede Osundina Casa Pia Ativo 118 / 109 40% 1 25.03.2027 -
Martín Tejón Maritimo Ativo 117 / 115 40% 1 23.03.2027 -
Mohamed-Ali Cho Hull City Ativo 128 / 133 40% 1 23.03.2027 -
Jorge Meireles AVS Ativo 112 / 123 40% 2 22.03.2027 -
Maduka Okoye Udinese Ativo 139 / 144 40% 2 21.03.2027 -
Svetoslav Vutsov Levski Ativo 125 / 113 40% 1 21.03.2027 -
Cezary Miszta Rio Ave Ativo 132 / 131 40% 2 19.03.2027 -
Mads Hermansen West Ham United Ativo 132 / 126 40% 3 19.03.2027 -
Sam Tickle Wigan Athletic Ativo 123 / 121 40% 3 18.03.2027 -
Grégoire Coudert Burnley Ativo 131 / 123 40% 1 18.03.2027 -
Figueiredo Alverca Ativo 121 / 113 40% 4 13.03.2027 -
Tamble Monteiro Rio Ave Ativo 116 / 126 40% 3 13.03.2027 -
Luccas Paraízo Leixões Ativo 112 / 106 40% 1 13.03.2027 -
Dom Ballard Leyton Orient Ativo 114 / 139 40% 4 12.03.2027 -
Lorent Tolaj Plymouth Argyle Ativo 127 / 135 40% 1 12.03.2027 -
Elia Caprile Cagliari Ativo 138 / 153 40% 2 11.03.2027 -
Raúl Rangel Braga Ativo 136 / 149 40% 2 09.03.2027 -
Bart Verbruggen Brighton Ativo 150 / 168 40% 1 09.03.2027 -
Matthieu Epolo Standard Liege Ativo 113 / 141 40% 1 06.03.2027 -
Lukas Jensen Millwall Ativo 122 / 104 40% 1 06.03.2027 -
Alfonso Trezza Arouca Ativo 129 / 120 40% 3 04.03.2027 -
Tyrese Campbell Sheffield United Ativo 128 / 121 40% 2 04.03.2027 -
Giorgos Koutsias Famalicao Ativo 119 / 111 40% 2 24.02.2027 -
Vinícius Lopes Santa Clara Ativo 116 / 115 40% 3 23.02.2027 -
Joe Gelhardt Hull City Ativo 130 / 116 40% 4 23.02.2027 -
Yanis Begraoui Estoril Praia Ativo 131 / 124 40% 4 21.02.2027 -
Pau Víctor Braga Ativo 145 / 126 40% 2 21.02.2027 -
Jorge Aguirre Torreense Ativo 103 / 87 40% 2 20.02.2027 -
Mohammad Hosseini Malavan Ativo 123 / 132 40% 2 20.02.2027 -
Dawda Camara Alverca Ativo 122 / 126 40% 1 19.02.2027 -
Henrique Araújo Casa Pia Ativo 123 / 122 40% 5 18.02.2027 -
Jackson Muleka Konyaspor Ativo 136 / 115 40% 1 18.02.2027 -
André Lacximicant Estoril Praia Ativo 109 / 116 40% 2 16.02.2027 -
Sam Greenwood Bristol City Ativo 122 / 136 40% 1 16.02.2027 -
Nathan Fogaça Fortaleza Ativo 122 / 118 40% 5 15.02.2027 -
Alireza Yazdani Padideh Ativo 126 / 112 40% 1 15.02.2027 -
Lazar Carević Famalicao Ativo 137 / 145 40% 1 15.02.2027 -
Sławomir Abramowicz Jagiellonia Ativo 122 / 139 40% 1 12.02.2027 -
Lorenzo Palmisani Frosinone Ativo 132 / 139 40% 1 12.02.2027 -
Fran Vieites Walsall Ativo 113 / 114 40% 1 10.02.2027 -
Patrick Sequeira Casa Pia Ativo 126 / 127 40% 1 10.02.2027 -
Gabriel Brazão Santos Ativo 136 / 123 40% 1 09.02.2027 -
Rafael Navarro Famalicao Ativo 122 / 125 40% 1 07.02.2027 -
Ianis Stoica Estrela da Amadora Ativo 118 / 128 40% 2 05.02.2027 -
Rhian Brewster Oleksandriya Ativo 116 / 120 40% 1 05.02.2027 -
Gabriel Silva Braga Ativo 126 / 121 40% 4 04.02.2027 -
George Hirst Stoke City Ativo 130 / 127 40% 2 03.02.2027 -
Juan Diego Castillo Vitoria Guimaraes Ativo 114 / 124 40% 1 02.02.2027 -
Jonathan Dellarossa Lokomotiv Plovdiv Ativo 126 / 116 40% 1 19.01.2027 -
José Manuel López Palmeiras Ativo 132 / 140 40% 2 15.01.2027 -
Negueba Mirassol Ativo 125 / 128 40% 2 15.01.2027 -
Vitinho Internacional Ativo 130 / 136 40% 2 13.01.2027 -
Vitor Roque Palmeiras Ativo 141 / 157 40% 4 08.01.2027 -
Marcos Paulo Juventude Ativo 117 / 127 40% 2 29.12.2026 -
Memphis Depay Corinthians Ativo 147 / 140 79% 1 14.12.2026 Aprovar
Lucas Veríssimo Santos Ativo 141 / 127 40% 3 28.11.2026 -
João Palhinha Benfica Ativo 143 / 134 40% 2 28.11.2026 -
Hwang In-Beom Porto Ativo 150 / 128 40% 1 28.11.2026 -
Leandro Antonetti Estrela da Amadora Ativo 94 / 95 40% 1 27.11.2026 -
Vitor Carvalho Braga Ativo 131 / 132 40% 2 21.11.2026 -
Jacob Greaves Ipswich Town Ativo 142 / 131 40% 1 21.11.2026 -
Ryan Christie Bournemouth Ativo 145 / 131 40% 1 21.11.2026 -
Zé Leite Moreirense Ativo 111 / 117 40% 2 19.11.2026 -
Yassin Fortuné Vizela Ativo 104 / 121 40% 1 19.11.2026 -
Leon Goretzka Aston Villa Ativo 147 / 155 40% 1 16.11.2026 -
Nico González Newcastle United Ativo 162 / 155 40% 1 16.11.2026 -
Bright Arrey-Mbi Braga Ativo 140 / 130 40% 1 13.11.2026 -
Martinelli Fluminense Ativo 142 / 150 40% 3 11.11.2026 -
Saša Lukić Ipswich Town Ativo 145 / 133 40% 1 11.11.2026 -
Vitinho Botafogo Ativo 131 / 140 40% 1 11.11.2026 -
Pablo Rosario Porto Ativo 145 / 127 40% 2 09.11.2026 -
Lucas Paquetá Flamengo Ativo 136 / 131 40% 2 09.11.2026 -
Francisco Moura Porto Ativo 143 / 147 40% 1 09.11.2026 -
Léo Ortiz Flamengo Ativo 145 / 143 40% 2 07.11.2026 -
Iván Fresneda Sporting CP Ativo 131 / 155 40% 2 07.11.2026 -
Luke Shaw Lokomotiv Moscow Ativo 148 / 135 40% 2 07.11.2026 -
Alberto Costa Porto Ativo 151 / 130 40% 4 05.11.2026 -
Eduardo Quaresma Sporting CP Ativo 136 / 143 40% 1 05.11.2026 -
Leandro Barreiro Benfica Ativo 136 / 139 40% 2 04.11.2026 -
Alexander Bah Benfica Ativo 132 / 153 40% 1 04.11.2026 -
Dara O'Shea Ipswich Town Ativo 135 / 125 40% 1 04.11.2026 -
Alexis Cuello San Lorenzo Ativo 123 / 132 40% 1 30.10.2026 -
Isidro Pitta Bragantino Ativo 128 / 128 40% 1 27.10.2026 -
Marcos Llorente Zenit Ativo 164 / 144 40% 2 20.10.2026 -
Enzo Barrenechea Benfica Ativo 145 / 148 40% 1 19.10.2026 -
Luciano Juba Bahia Ativo 137 / 146 40% 1 16.10.2026 -
Nicolò Tresoldi Club Brugge Ativo 127 / 125 40% 1 13.10.2026 -
Alejandro Piedrahita Deportivo Pereira Ativo 125 / 127 40% 1 13.10.2026 -
Talles Magno New York City Ativo 135 / 122 40% 2 01.10.2026 -
Zeno Debast Sporting CP Ativo 142 / 151 40% 1 28.09.2026 -
Danilo Botafogo Ativo 133 / 127 40% 1 25.09.2026 -
Nehuén Pérez Porto Ativo 148 / 126 40% 1 21.09.2026 -
Dejan Joveljić Seattle Sounders Ativo 121 / 121 40% 1 21.09.2026 -
Amar Dedić Newcastle United Ativo 138 / 151 40% 1 18.09.2026 -
Gustaf Lagerbielke Braga Ativo 126 / 147 40% 1 18.09.2026 -
Arthur Flamengo Ativo 139 / 148 40% 1 17.09.2026 -
Florentino Luís Ipswich Town Ativo 139 / 127 40% 1 17.09.2026 -
Richard Sanchez Cortulua Ativo 128 / 127 40% 1 15.09.2026 -
Wessam Abou Ali Columbus Crew Ativo 125 / 132 40% 1 07.09.2026 -
Bruno Larregui Juventud Ativo 117 / 117 40% 1 07.09.2026 -
Gustavo Maia Atletico Goianiense Ativo 100 / 100 30% 1 / 1m 12.08.2026 -
Leandro Trossard Besiktas Ativo 162 / 161 40% 1 12.08.2026 -
Pedro Flamengo Ativo 136 / 148 40% 1 12.08.2026 -
Gonçalo Guedes Real Sociedad Ativo 139 / 158 40% 1 04.08.2026 -
Richarlison Tottenham Ativo 131 / 138 40% 1 04.08.2026 -